Terminal Aerodrome Forecast
Issued by NWS Wilmington, OH

Current Version | Previous Version | Graphics & Text | Print | Product List | Glossary On
Versions: 1 2 3 4 5 6 7 8 9 10 11 12 13 14 15 16 17 18
402
FTUS41 KILN 252227 AAA
TAFDAY
TAF AMD
KDAY 252227Z 2522/2618 14014KT P6SM OVC150
     FM260200 14006KT P6SM VCSH BKN130
     FM260700 15007KT 6SM -SHRA BR OVC090
     FM261000 16007KT 6SM -SHRA BR OVC050
     FM261400 17010KT 4SM -SHRA BR OVC015=

USA.gov is the U.S. government's official web portal to all federal, state and local government web resources and services.